首页
METAR-TAF:

METAR-TAF

机场 :

美索, 泰国

纬度: 16-40N, 经度: 098-33E, 海拔: 196米

当前天气观测

该预报发布于3小时和43分钟前的11:00 UTC
风速8节,风向西转西南
温度 26°C
湿度 94%
气压 1008 hPa
能见度10公里或以上
散云层高于2500英尺
多云层高于4000英尺

METAR: VTPM 171100Z 24008KT 9999 SCT025 BKN040 26/25 Q1008 NOSIG

时间: 21:43 (14:43 UTC)

预报

该预报发布于3小时和43分钟前的11:00 UTC
预报有效从17日的 12点(UTC)到 18日的 12点(UTC)
风速5节,风向西转西南
能见度10公里或以上
散云层高于3000英尺
短暂存在
从 17日的 12点(UTC)到 17日的 18点(UTC)
少量云层高于2000英尺, 积雨云.
多云层高于3000英尺
雷暴, 小雨
成为
从 17日的 22点(UTC)到 17日的 24点(UTC)
风速5节,风向南转南东
短暂存在
从 18日的 06点(UTC)到 18日的 12点(UTC)
风速15节,风向西转西南,有时为25节阵风
能見度: 4000
少量云层高于2000英尺, 积雨云.
多云层高于3000英尺
雷暴, 雨,

TAF: VTPM 171100Z 1712/1812 24005KT 9999 SCT030 TEMPO 1712/1718 -TSRA FEW020CB BKN030 BECMG 1722/1724 16005KT TEMPO 1806/1812 24015G25KT 4000 TSRA FEW020CB BKN030

超过4000个机场的气象观测和天气预报(METAR&TAF报告)。

可查询的气象台以黄色和红色小点在地图上表示。

将鼠标移到小点上方,可查看气象台名称。

然后点击查看天气观测和预报。

如需切换地图:点击带黑十字的绿色按钮放大地图;点击带横线的绿色按钮缩小地图;或者点击绿色箭头查看邻近地区的地图。


METAR-TAF: